Time;durP1;ratioP1;P1;durP2;ratioP2;P2;SDS_P1;SDS_P2;PMS_P1;PMS_P2;Temp;Humidity;BMP_temperature;BMP_pressure;BME280_temperature;BME280_humidity;BME280_pressure;Samples;Min_cycle;Max_cycle;Signal;HPM_P1;HPM_P2
2022/05/25 00:01:22;;;;;;;0.98;0.98;;;;;;;11.56;73.35;98314.91;4167506;28;20214;-57
2022/05/25 00:03:24;;;;;;;0.68;0.68;;;;;;;11.53;73.58;98324.47;4170693;28;20656;-58
2022/05/25 00:05:26;;;;;;;0.73;0.73;;;;;;;11.64;73.38;98317.97;4167990;28;20205;-58
2022/05/25 00:07:27;;;;;;;0.60;0.60;;;;;;;11.74;72.62;98323.56;4169897;28;20227;-57
2022/05/25 00:09:29;;;;;;;1.02;1.02;;;;;;;11.85;72.67;98325.28;4166349;28;20222;-58
2022/05/25 00:11:30;;;;;;;0.60;0.60;;;;;;;11.91;72.50;98321.47;4167316;28;20637;-57
2022/05/25 00:13:32;;;;;;;0.60;0.60;;;;;;;11.97;72.21;98317.69;4167573;28;20204;-57
2022/05/25 00:15:34;;;;;;;0.60;0.60;;;;;;;12.00;71.67;98321.81;4169242;28;20295;-58
2022/05/25 00:17:36;;;;;;;1.10;0.98;;;;;;;12.00;71.77;98321.81;4165594;28;20660;-58
2022/05/25 00:21:58;;;;;;;0.95;0.70;;;;;;;11.96;71.95;98310.56;4167418;28;20218;-58
2022/05/25 00:23:59;;;;;;;0.73;0.70;;;;;;;11.87;72.11;98317.63;4165844;28;20205;-58
2022/05/25 00:26:01;;;;;;;0.70;0.70;;;;;;;11.84;72.41;98306.38;4165826;28;20695;-57
2022/05/25 00:28:05;;;;;;;0.80;0.80;;;;;;;11.83;72.15;98315.69;4166186;28;20231;-57
2022/05/25 00:30:07;;;;;;;0.60;0.60;;;;;;;11.83;72.05;98321.97;4167268;28;20712;-58
2022/05/25 00:32:09;;;;;;;0.57;0.57;;;;;;;11.82;71.91;98325.81;4168773;28;20240;-58
2022/05/25 00:34:10;;;;;;;0.70;0.70;;;;;;;11.67;72.44;98322.97;4166801;28;20357;-58
2022/05/25 00:36:12;;;;;;;0.70;0.70;;;;;;;11.63;72.68;98324.56;4165602;28;20208;-58
2022/05/25 00:38:13;;;;;;;0.82;0.82;;;;;;;11.66;72.52;98331.44;4183053;28;20321;-58
2022/05/25 00:40:22;;;;;;;0.93;0.77;;;;;;;11.65;72.31;98330.59;4171640;28;20238;-58
2022/05/25 00:42:23;;;;;;;0.70;0.70;;;;;;;11.67;72.34;98338.56;4169851;28;20746;-57
2022/05/25 00:44:25;;;;;;;0.93;0.73;;;;;;;11.66;72.34;98332.28;4168652;28;20242;-58
2022/05/25 00:46:27;;;;;;;0.50;0.50;;;;;;;11.61;72.36;98329.50;4167399;28;20238;-58
2022/05/25 00:48:38;;;;;;;0.82;0.80;;;;;;;11.57;72.14;98336.53;4168486;28;20273;-58
2022/05/25 00:53:00;;;;;;;0.75;0.75;;;;;;;11.55;71.91;98341.47;4169827;28;20200;-58
2022/05/25 00:55:05;;;;;;;0.55;0.55;;;;;;;11.60;71.86;98338.81;4181685;28;20770;-58
2022/05/25 00:57:24;;;;;;;0.77;0.77;;;;;;;11.60;71.77;98337.97;4167136;28;20204;-57
2022/05/25 00:59:29;;;;;;;0.90;0.90;;;;;;;11.58;71.76;98340.94;4163889;28;20211;-58
2022/05/25 01:01:30;;;;;;;0.50;0.50;;;;;;;11.53;71.99;98354.59;4175525;28;20692;-58
2022/05/25 01:03:32;;;;;;;0.60;0.60;;;;;;;11.49;71.89;98345.22;4163896;28;20607;-57
2022/05/25 01:05:40;;;;;;;0.50;0.50;;;;;;;11.43;71.52;98349.00;4167389;28;20200;-58
2022/05/25 01:08:06;;;;;;;0.60;0.60;;;;;;;11.30;72.18;98349.44;4168113;28;20227;-58
2022/05/25 01:10:18;;;;;;;0.60;0.60;;;;;;;11.08;73.24;98339.59;4167133;28;20223;-57
2022/05/25 01:12:20;;;;;;;1.45;0.82;;;;;;;10.99;73.68;98350.22;4164426;28;20227;-58
2022/05/25 01:14:46;;;;;;;0.70;0.70;;;;;;;11.01;73.23;98345.28;4167062;28;20334;-57
2022/05/25 01:17:25;;;;;;;0.80;0.80;;;;;;;11.07;72.82;98343.44;4167247;28;20250;-57
2022/05/25 01:19:41;;;;;;;0.70;0.70;;;;;;;11.14;72.80;98350.38;4167214;28;20211;-58
2022/05/25 01:22:31;;;;;;;0.85;0.60;;;;;;;11.18;72.33;98356.97;4167673;28;20515;-58
2022/05/25 01:25:32;;;;;;;0.50;0.50;;;;;;;11.17;72.29;98352.56;4169503;28;20211;-57
2022/05/25 01:27:36;;;;;;;0.60;0.60;;;;;;;11.16;72.13;98348.19;4124210;28;20221;-58
2022/05/25 01:29:47;;;;;;;0.63;0.63;;;;;;;11.15;71.53;98352.00;4125614;28;20360;-57
2022/05/25 01:31:59;;;;;;;0.70;0.70;;;;;;;11.11;71.54;98345.38;4134181;28;20302;-57
2022/05/25 01:34:15;;;;;;;0.80;0.80;;;;;;;11.09;71.56;98353.03;4165908;28;20231;-58
2022/05/25 01:36:24;;;;;;;0.80;0.80;;;;;;;11.02;71.34;98346.09;4169868;28;20204;-58
2022/05/25 01:38:28;;;;;;;0.75;0.75;;;;;;;10.99;71.75;98347.47;4163751;28;20192;-58
2022/05/25 01:40:43;;;;;;;0.70;0.70;;;;;;;11.00;71.67;98354.59;4169618;28;20592;-57
2022/05/25 01:42:58;;;;;;;0.70;0.70;;;;;;;10.99;71.44;98361.16;4168931;28;20235;-58
2022/05/25 01:45:03;;;;;;;0.70;0.70;;;;;;;10.97;71.62;98355.09;4171099;28;20254;-57
2022/05/25 01:47:06;;;;;;;0.85;0.85;;;;;;;10.93;72.07;98356.72;4163943;28;20627;-58
2022/05/25 01:49:10;;;;;;;0.60;0.60;;;;;;;10.93;71.62;98366.81;4179616;28;20211;-57
2022/05/25 01:51:25;;;;;;;0.77;0.77;;;;;;;10.93;71.58;98362.19;4169431;28;20232;-58
2022/05/25 01:53:40;;;;;;;0.80;0.80;;;;;;;10.91;71.61;98367.06;4168586;28;20723;-57
2022/05/25 01:55:47;;;;;;;0.77;0.77;;;;;;;10.87;71.80;98356.06;4185028;28;20367;-58
2022/05/25 01:57:52;;;;;;;0.80;0.80;;;;;;;10.78;71.81;98361.97;4167730;28;20292;-57
2022/05/25 01:59:54;;;;;;;1.23;0.60;;;;;;;10.74;72.00;98365.47;4167757;28;20639;-58
2022/05/25 02:04:22;;;;;;;0.70;0.70;;;;;;;10.47;73.38;98371.97;4167113;28;20204;-57
2022/05/25 02:06:44;;;;;;;1.13;1.13;;;;;;;10.54;73.01;98369.88;4171128;28;20571;-58
2022/05/25 02:08:52;;;;;;;0.80;0.80;;;;;;;10.56;72.48;98379.47;4166728;28;20216;-57
2022/05/25 02:10:53;;;;;;;0.73;0.73;;;;;;;10.55;72.89;98371.53;4171586;28;20576;-57
2022/05/25 02:13:10;;;;;;;0.80;0.80;;;;;;;10.56;72.81;98373.19;4170896;28;20735;-58
2022/05/25 02:15:42;;;;;;;0.70;0.70;;;;;;;10.54;72.90;98378.09;4170816;28;20204;-58
2022/05/25 02:18:05;;;;;;;0.60;0.60;;;;;;;10.54;72.52;98383.56;4171876;28;20211;-58
2022/05/25 02:20:19;;;;;;;0.85;0.85;;;;;;;10.54;72.37;98378.09;4170536;28;20224;-58
2022/05/25 02:22:26;;;;;;;0.77;0.77;;;;;;;10.52;72.31;98374.75;4172364;28;20586;-57
2022/05/25 02:24:36;;;;;;;0.90;0.90;;;;;;;10.50;72.30;98379.66;4171642;28;20200;-57
2022/05/25 02:26:44;;;;;;;0.77;0.77;;;;;;;10.50;72.17;98383.25;4172351;28;20196;-58
2022/05/25 02:28:59;;;;;;;0.50;0.50;;;;;;;10.48;72.67;98379.09;4154512;28;20220;-58
2022/05/25 02:31:03;;;;;;;0.63;0.63;;;;;;;10.46;72.01;98378.50;4169409;28;20224;-58
2022/05/25 02:33:15;;;;;;;0.65;0.65;;;;;;;10.47;71.86;98385.66;4174966;28;20235;-57
2022/05/25 02:35:18;;;;;;;0.68;0.68;;;;;;;10.48;71.93;98387.31;4183594;28;20203;-57
2022/05/25 02:37:23;;;;;;;0.90;0.90;;;;;;;10.48;71.96;98390.03;4166929;28;20237;-58
2022/05/25 02:39:24;;;;;;;1.00;0.95;;;;;;;10.44;71.68;98397.09;4172464;28;20928;-58
2022/05/25 02:41:32;;;;;;;1.33;0.98;;;;;;;10.43;71.68;98396.28;4172003;28;20291;-57
2022/05/25 02:43:38;;;;;;;1.15;1.05;;;;;;;10.40;71.91;98395.91;4170761;28;20200;-58
2022/05/25 02:45:39;;;;;;;0.70;0.70;;;;;;;10.34;71.98;98402.44;4171807;28;20209;-58
2022/05/25 02:47:41;;;;;;;1.95;0.80;;;;;;;10.17;72.98;98396.97;4171254;28;21259;-58
2022/05/25 02:49:43;;;;;;;0.73;0.73;;;;;;;10.14;73.16;98396.66;4171132;28;20303;-58
2022/05/25 02:51:45;;;;;;;0.90;0.90;;;;;;;10.07;72.99;98393.25;4170772;28;20211;-58
2022/05/25 02:53:47;;;;;;;0.90;0.90;;;;;;;10.12;73.00;98396.06;4169985;28;20299;-57
2022/05/25 02:55:49;;;;;;;0.70;0.70;;;;;;;10.14;72.97;98399.38;4168584;28;20275;-57
2022/05/25 02:57:51;;;;;;;1.48;0.80;;;;;;;10.17;73.06;98399.72;4182117;28;20204;-57
2022/05/25 02:59:52;;;;;;;0.75;0.75;;;;;;;10.10;73.30;98400.94;4168304;28;20320;-58
2022/05/25 03:01:54;;;;;;;0.80;0.80;;;;;;;10.03;73.68;98400.25;4168711;28;20207;-58
2022/05/25 03:03:55;;;;;;;0.65;0.65;;;;;;;9.70;75.38;98401.09;4168841;28;20204;-58
2022/05/25 03:05:57;;;;;;;1.13;1.05;;;;;;;9.68;75.01;98407.88;4168120;28;20311;-58
2022/05/25 03:07:59;;;;;;;0.88;0.85;;;;;;;9.76;74.65;98404.72;4167902;28;20224;-58
2022/05/25 03:10:00;;;;;;;0.60;0.60;;;;;;;9.80;74.30;98406.72;4169343;28;20224;-58
2022/05/25 03:12:03;;;;;;;0.90;0.88;;;;;;;9.82;74.41;98412.75;4182039;28;20684;-57
2022/05/25 03:14:06;;;;;;;1.05;0.98;;;;;;;9.84;74.02;98413.34;4167297;28;20320;-58
2022/05/25 03:16:08;;;;;;;1.05;1.00;;;;;;;9.87;73.79;98412.03;4170335;28;20235;-58
2022/05/25 03:18:09;;;;;;;0.70;0.70;;;;;;;9.88;73.40;98402.75;4170099;28;20232;-58
2022/05/25 03:20:11;;;;;;;0.95;0.95;;;;;;;9.87;73.68;98401.09;4178253;28;20235;-58
2022/05/25 03:22:13;;;;;;;0.85;0.85;;;;;;;9.86;73.40;98400.25;4169935;28;20204;-58
2022/05/25 03:24:15;;;;;;;0.80;0.80;;;;;;;9.80;73.79;98406.72;4171424;28;20402;-58
2022/05/25 03:26:17;;;;;;;0.70;0.70;;;;;;;9.71;74.47;98407.38;4180917;28;20278;-58
2022/05/25 03:28:19;;;;;;;1.08;1.00;;;;;;;9.50;75.75;98417.13;4168722;28;20224;-57
2022/05/25 03:30:21;;;;;;;1.88;1.30;;;;;;;9.50;75.57;98411.66;4174122;28;20229;-58
2022/05/25 03:32:23;;;;;;;0.85;0.85;;;;;;;9.53;75.52;98415.78;4171203;28;20771;-57
2022/05/25 03:34:24;;;;;;;1.27;1.17;;;;;;;9.51;75.88;98412.47;4170941;28;20204;-58
2022/05/25 03:36:26;;;;;;;0.90;0.90;;;;;;;9.37;76.20;98413.88;4171104;28;20295;-57
2022/05/25 03:38:28;;;;;;;0.90;0.90;;;;;;;9.37;76.10;98422.06;4170472;28;20211;-58
2022/05/25 03:40:30;;;;;;;1.35;1.25;;;;;;;9.48;76.13;98423.91;4170850;28;20226;-58
2022/05/25 03:42:31;;;;;;;0.70;0.70;;;;;;;9.58;75.42;98429.53;4169318;28;20204;-58
2022/05/25 03:44:35;;;;;;;0.80;0.80;;;;;;;9.65;74.93;98435.69;4179349;28;20678;-57
2022/05/25 03:46:37;;;;;;;0.75;0.75;;;;;;;9.70;74.53;98441.25;4170892;28;20214;-58
2022/05/25 03:48:38;;;;;;;0.82;0.82;;;;;;;9.73;74.00;98443.47;4172651;28;20278;-58
2022/05/25 03:50:41;;;;;;;1.05;1.00;;;;;;;9.72;73.77;98437.19;4168352;28;20224;-57
2022/05/25 03:52:42;;;;;;;1.02;1.00;;;;;;;9.68;73.37;98448.88;4170108;28;20315;-58
2022/05/25 03:54:44;;;;;;;0.70;0.70;;;;;;;9.63;73.39;98443.31;4168768;28;20296;-57
2022/05/25 03:56:46;;;;;;;1.02;0.73;;;;;;;9.62;73.32;98447.91;4168507;28;20239;-57
2022/05/25 03:58:47;;;;;;;0.85;0.85;;;;;;;9.65;73.44;98446.59;4171251;28;20222;-58
2022/05/25 04:00:49;;;;;;;0.77;0.77;;;;;;;9.66;73.14;98451.00;4169345;28;20224;-58
2022/05/25 04:02:57;;;;;;;0.70;0.70;;;;;;;9.64;72.90;98456.72;4185620;28;20212;-57
2022/05/25 04:05:08;;;;;;;1.17;1.08;;;;;;;9.62;73.14;98453.38;4172880;28;20304;-58
2022/05/25 04:07:09;;;;;;;0.82;0.82;;;;;;;9.63;72.83;98460.50;4169983;28;20291;-59
2022/05/25 04:09:11;;;;;;;0.75;0.75;;;;;;;9.64;72.97;98450.41;4167664;28;20295;-61
2022/05/25 04:11:13;;;;;;;0.90;0.90;;;;;;;9.63;73.36;98454.22;4173255;28;20315;-58
2022/05/25 04:13:16;;;;;;;0.93;0.93;;;;;;;9.63;73.10;98454.22;4167336;28;20204;-61
2022/05/25 04:15:23;;;;;;;1.30;1.20;;;;;;;9.63;73.06;98457.78;4167670;28;20201;-59
2022/05/25 04:17:25;;;;;;;0.70;0.70;;;;;;;9.63;73.10;98456.97;4167130;28;20196;-59
2022/05/25 04:19:27;;;;;;;0.73;0.73;;;;;;;9.51;74.01;98457.03;4168384;28;20204;-59
2022/05/25 04:21:28;;;;;;;0.70;0.70;;;;;;;9.55;73.85;98458.19;4168040;28;20204;-59
2022/05/25 04:23:30;;;;;;;1.02;1.02;;;;;;;9.57;73.49;98466.97;4169637;28;20687;-60
2022/05/25 04:25:32;;;;;;;1.13;0.90;;;;;;;9.56;73.41;98465.28;4168438;28;20996;-58
2022/05/25 04:27:34;;;;;;;2.13;1.23;;;;;;;9.58;73.84;98468.63;4167196;28;20290;-59
2022/05/25 04:29:36;;;;;;;1.15;1.15;;;;;;;9.62;73.51;98468.97;4168745;28;20204;-59
2022/05/25 04:31:38;;;;;;;3.13;1.00;;;;;;;9.60;73.57;98465.63;4169425;28;20614;-59
2022/05/25 04:33:40;;;;;;;1.45;0.95;;;;;;;9.49;74.55;98470.06;4170405;28;20201;-58
2022/05/25 04:35:42;;;;;;;0.90;0.90;;;;;;;9.57;73.92;98477.91;4169121;28;20661;-57
2022/05/25 04:37:49;;;;;;;1.00;1.00;;;;;;;9.55;74.58;98479.22;4168599;28;20207;-59
2022/05/25 04:39:51;;;;;;;1.33;1.23;;;;;;;9.41;75.13;98477.84;4168382;28;21000;-60
2022/05/25 04:41:54;;;;;;;0.82;0.82;;;;;;;9.29;76.31;98482.53;4169121;28;20566;-61
2022/05/25 04:43:55;;;;;;;0.85;0.85;;;;;;;9.33;75.92;98491.88;4172751;28;20205;-59
2022/05/25 04:45:59;;;;;;;1.48;1.08;;;;;;;9.38;76.22;98486.50;4166678;28;20255;-57
2022/05/25 04:48:01;;;;;;;0.80;0.80;;;;;;;9.47;75.78;98493.22;4167865;28;20697;-57
2022/05/25 04:50:08;;;;;;;1.75;0.98;;;;;;;9.45;76.35;98496.22;4167938;28;20220;-59
2022/05/25 04:52:09;;;;;;;1.10;1.10;;;;;;;9.57;75.83;98504.38;4167154;28;20904;-58
2022/05/25 04:54:11;;;;;;;0.90;0.90;;;;;;;9.70;75.61;98501.34;4166094;28;20319;-58
2022/05/25 04:58:35;;;;;;;0.80;0.80;;;;;;;9.89;74.97;98508.25;4167155;28;20566;-61
2022/05/25 05:00:37;;;;;;;0.90;0.90;;;;;;;9.99;74.88;98508.44;4167140;28;20586;-60
2022/05/25 05:02:38;;;;;;;0.80;0.80;;;;;;;10.04;74.49;98516.75;4167675;28;20295;-60
2022/05/25 05:04:40;;;;;;;0.88;0.88;;;;;;;10.04;74.58;98516.75;4167924;28;20211;-59
2022/05/25 05:06:44;;;;;;;1.48;1.13;;;;;;;9.98;75.09;98517.72;4164792;28;20251;-59
2022/05/25 05:08:46;;;;;;;0.73;0.73;;;;;;;10.02;74.97;98518.88;4170883;28;20228;-60
2022/05/25 05:10:49;;;;;;;0.90;0.90;;;;;;;10.04;75.46;98519.50;4166611;28;20227;-59
2022/05/25 05:12:50;;;;;;;2.63;2.00;;;;;;;10.11;75.20;98528.38;4167132;28;20239;-60
2022/05/25 05:14:52;;;;;;;1.10;1.10;;;;;;;10.15;74.92;98524.88;4168552;28;20209;-59
2022/05/25 05:16:57;;;;;;;1.30;1.20;;;;;;;10.27;74.64;98522.09;4164180;28;20200;-57
2022/05/25 05:18:59;;;;;;;0.95;0.95;;;;;;;10.37;74.33;98530.47;4168482;28;20283;-58
2022/05/25 05:21:00;;;;;;;1.27;1.17;;;;;;;10.49;74.44;98533.94;4167780;28;20230;-58
2022/05/25 05:23:02;;;;;;;1.50;0.82;;;;;;;10.59;74.58;98536.84;4167458;28;20214;-57
2022/05/25 05:25:04;;;;;;;1.00;1.00;;;;;;;10.71;74.53;98545.78;4167190;28;20208;-57
2022/05/25 05:27:06;;;;;;;1.10;1.10;;;;;;;10.84;75.23;98544.34;4166973;28;20214;-58
2022/05/25 05:29:08;;;;;;;1.08;0.98;;;;;;;11.05;75.50;98549.03;4165977;28;20687;-57
2022/05/25 05:31:10;;;;;;;1.10;1.10;;;;;;;11.19;74.46;98544.06;4165083;28;20220;-58
2022/05/25 05:33:11;;;;;;;0.80;0.80;;;;;;;11.41;74.56;98545.72;4167570;28;20257;-58
2022/05/25 05:35:13;;;;;;;0.98;0.98;;;;;;;11.59;74.24;98548.19;4166124;28;20298;-58
2022/05/25 05:37:19;;;;;;;1.40;1.40;;;;;;;11.73;73.61;98546.72;4166149;28;20208;-58
2022/05/25 05:39:23;;;;;;;1.15;1.10;;;;;;;11.91;72.86;98560.06;4159935;28;20299;-58
2022/05/25 05:41:28;;;;;;;1.10;1.10;;;;;;;11.91;72.69;98549.09;4165544;28;20282;-57
2022/05/25 05:43:29;;;;;;;1.10;1.10;;;;;;;12.15;72.42;98558.66;4170299;28;20288;-58
2022/05/25 05:45:37;;;;;;;1.05;1.05;;;;;;;12.38;72.14;98561.06;4166367;28;20212;-57
2022/05/25 05:47:44;;;;;;;1.05;1.00;;;;;;;12.57;71.34;98565.09;4182903;28;20195;-57
2022/05/25 05:49:46;;;;;;;0.70;0.70;;;;;;;12.51;70.34;98559.84;4168946;28;20236;-58
2022/05/25 05:51:55;;;;;;;1.33;1.05;;;;;;;12.51;70.31;98565.34;4171439;28;20548;-58
2022/05/25 05:53:57;;;;;;;1.00;1.00;;;;;;;12.74;70.51;98565.81;4171079;28;20304;-57
2022/05/25 05:55:59;;;;;;;1.15;1.00;;;;;;;12.85;69.67;98567.50;4170533;28;20200;-58
2022/05/25 05:58:01;;;;;;;0.98;0.88;;;;;;;12.47;70.19;98570.50;4166837;28;20236;-58
2022/05/25 06:00:05;;;;;;;0.70;0.70;;;;;;;12.77;70.47;98576.25;4183933;28;20306;-57
2022/05/25 06:02:06;;;;;;;1.85;1.10;;;;;;;12.99;69.21;98570.69;4181553;28;20207;-58
2022/05/25 06:04:09;;;;;;;0.68;0.68;;;;;;;13.06;69.12;98583.09;4172427;28;20239;-58
2022/05/25 06:06:11;;;;;;;0.75;0.75;;;;;;;13.02;68.80;98573.72;4171588;28;20200;-58
2022/05/25 06:08:18;;;;;;;1.45;1.00;;;;;;;13.30;68.76;98575.28;4167022;28;21254;-57
2022/05/25 06:10:20;;;;;;;0.68;0.68;;;;;;;13.48;67.83;98581.16;4163539;28;20314;-60
2022/05/25 06:12:22;;;;;;;0.70;0.70;;;;;;;13.61;67.92;98583.44;4170090;28;20298;-61
2022/05/25 06:14:24;;;;;;;0.80;0.80;;;;;;;13.79;67.04;98590.38;4172272;28;20781;-57
2022/05/25 06:21:06;;;;;;;1.83;1.05;;;;;;;13.84;67.25;98604.97;4170921;28;20234;-57
2022/05/25 06:23:08;;;;;;;2.20;0.80;;;;;;;14.04;67.50;98605.06;4173734;28;20200;-57
2022/05/25 06:25:09;;;;;;;0.90;0.90;;;;;;;14.25;66.78;98614.25;4172619;28;20204;-60
2022/05/25 06:27:12;;;;;;;0.80;0.80;;;;;;;14.38;66.26;98614.53;4173853;28;20234;-59
2022/05/25 06:29:17;;;;;;;1.02;0.98;;;;;;;14.52;65.23;98612.09;4165869;28;20293;-57
2022/05/25 06:31:19;;;;;;;2.03;1.17;;;;;;;14.03;65.76;98614.41;4168221;28;20275;-57
2022/05/25 06:33:21;;;;;;;0.70;0.55;;;;;;;14.34;65.52;98610.69;4171054;28;20861;-57
2022/05/25 06:35:23;;;;;;;0.88;0.88;;;;;;;13.93;64.89;98611.63;4172131;28;20243;-61
2022/05/25 06:37:25;;;;;;;1.08;0.85;;;;;;;14.04;65.12;98610.56;4172049;28;20228;-57
2022/05/25 06:39:27;;;;;;;0.50;0.50;;;;;;;14.29;65.89;98607.91;4173683;28;20215;-57
2022/05/25 06:41:29;;;;;;;0.60;0.60;;;;;;;14.60;65.44;98617.91;4171656;28;20248;-57
2022/05/25 06:43:31;;;;;;;2.55;0.70;;;;;;;14.85;65.54;98623.44;4173050;28;20719;-57
2022/05/25 06:45:33;;;;;;;0.63;0.63;;;;;;;14.96;63.21;98619.56;4171525;28;20655;-58
2022/05/25 06:47:36;;;;;;;1.30;1.15;;;;;;;14.78;64.53;98625.66;4167789;28;20786;-57
2022/05/25 06:49:38;;;;;;;0.45;0.45;;;;;;;14.88;63.09;98627.56;4177368;28;20222;-56
2022/05/25 06:51:39;;;;;;;1.63;0.90;;;;;;;14.65;62.70;98631.69;4172563;28;20669;-57
2022/05/25 06:53:41;;;;;;;0.98;0.80;;;;;;;14.88;62.38;98636.66;4170763;28;20759;-58
2022/05/25 06:55:43;;;;;;;0.68;0.63;;;;;;;14.96;61.69;98636.09;4173335;28;20209;-58
2022/05/25 06:57:44;;;;;;;0.60;0.50;;;;;;;15.04;61.73;98638.31;4172269;28;20298;-60
2022/05/25 06:59:46;;;;;;;0.77;0.77;;;;;;;15.29;62.42;98641.06;4172920;28;20224;-59
2022/05/25 07:01:49;;;;;;;0.73;0.60;;;;;;;15.47;61.98;98639.69;4173195;28;20648;-58
2022/05/25 07:03:54;;;;;;;0.50;0.50;;;;;;;15.44;61.65;98638.31;4172299;28;20677;-61
2022/05/25 07:05:56;;;;;;;0.95;0.80;;;;;;;15.75;62.15;98642.66;4160314;28;20291;-61
2022/05/25 07:07:57;;;;;;;0.55;0.55;;;;;;;15.92;60.71;98634.91;4163151;28;20239;-60
2022/05/25 07:09:59;;;;;;;1.45;0.60;;;;;;;15.91;60.75;98647.03;4164680;28;20375;-61
2022/05/25 07:12:00;;;;;;;1.83;0.82;;;;;;;16.13;60.25;98643.91;4163863;28;20638;-56
2022/05/25 07:14:02;;;;;;;1.10;0.80;;;;;;;16.23;60.27;98652.16;4168728;28;20200;-60
2022/05/25 07:16:07;;;;;;;0.40;0.40;;;;;;;16.46;60.54;98651.50;4169241;28;20288;-59
2022/05/25 07:18:09;;;;;;;0.73;0.50;;;;;;;16.64;60.21;98648.91;4174415;28;20239;-58
2022/05/25 07:20:11;;;;;;;0.50;0.50;;;;;;;16.67;58.82;98642.84;4169310;28;20976;-58
2022/05/25 07:22:12;;;;;;;0.57;0.57;;;;;;;16.71;58.43;98649.44;4173119;28;20755;-60
2022/05/25 07:24:20;;;;;;;1.65;0.95;;;;;;;16.63;57.43;98636.22;4169776;28;20721;-61
2022/05/25 07:26:22;;;;;;;0.52;0.50;;;;;;;16.72;58.14;98645.56;4169974;28;21244;-59
2022/05/25 07:28:24;;;;;;;0.90;0.73;;;;;;;16.90;57.17;98635.78;4167945;28;20296;-60
2022/05/25 07:30:25;;;;;;;0.40;0.40;;;;;;;17.12;57.52;98646.09;4167818;28;20230;-58
2022/05/25 07:32:27;;;;;;;0.35;0.32;;;;;;;17.00;55.61;98648.38;4168689;28;20280;-59
2022/05/25 07:34:31;;;;;;;0.68;0.47;;;;;;;17.19;57.08;98656.84;4170022;28;20206;-61
2022/05/25 07:36:33;;;;;;;0.35;0.35;;;;;;;17.25;55.12;98655.69;4168737;28;20299;-60
2022/05/25 07:38:34;;;;;;;0.40;0.40;;;;;;;17.19;55.82;98648.53;4170603;28;20245;-59
2022/05/25 07:40:38;;;;;;;2.13;0.50;;;;;;;17.24;56.50;98649.31;4166455;28;21455;-59
2022/05/25 07:42:42;;;;;;;0.50;0.50;;;;;;;17.64;56.19;98643.44;4168688;28;20199;-58
2022/05/25 07:44:55;;;;;;;0.40;0.40;;;;;;;17.65;54.43;98644.25;4183109;28;20204;-59
2022/05/25 07:46:56;;;;;;;0.50;0.47;;;;;;;17.60;54.98;98658.94;4164452;28;20311;-58
2022/05/25 07:48:58;;;;;;;0.50;0.50;;;;;;;17.62;53.60;98645.66;4169566;28;20319;-59
2022/05/25 07:51:00;;;;;;;0.50;0.50;;;;;;;17.18;53.23;98650.47;4158406;28;20234;-57
2022/05/25 07:53:02;;;;;;;1.45;0.40;;;;;;;17.63;53.61;98652.00;4170258;28;20228;-57
2022/05/25 07:55:05;;;;;;;0.85;0.47;;;;;;;17.53;53.11;98652.13;4168542;28;20232;-57
2022/05/25 07:57:07;;;;;;;0.25;0.25;;;;;;;17.81;56.27;98652.13;4169487;28;20621;-58
2022/05/25 07:59:11;;;;;;;0.20;0.20;;;;;;;18.00;52.50;98655.78;4167026;28;20575;-57
2022/05/25 08:01:15;;;;;;;0.73;0.28;;;;;;;18.23;53.17;98651.34;4167048;28;20232;-57
2022/05/25 08:05:44;;;;;;;0.40;0.40;;;;;;;18.43;52.57;98651.09;4164207;28;20281;-57
2022/05/25 08:07:46;;;;;;;0.47;0.30;;;;;;;18.68;53.59;98659.09;4169458;28;20234;-57
2022/05/25 08:09:48;;;;;;;0.28;0.28;;;;;;;18.01;50.87;98660.19;4167765;28;20225;-57
2022/05/25 08:11:51;;;;;;;0.60;0.30;;;;;;;18.15;50.94;98665.84;4178596;28;20200;-57
2022/05/25 08:13:55;;;;;;;1.75;0.50;;;;;;;17.91;52.32;98665.03;4167152;28;20201;-57
2022/05/25 08:15:56;;;;;;;1.17;0.32;;;;;;;18.14;52.14;98669.75;4168117;28;20205;-57
2022/05/25 08:17:58;;;;;;;0.43;0.43;;;;;;;18.65;52.67;98659.69;4168950;28;20201;-57
2022/05/25 08:20:00;;;;;;;0.20;0.20;;;;;;;18.75;52.46;98670.63;4171478;28;20248;-56
2022/05/25 08:22:02;;;;;;;0.30;0.30;;;;;;;19.01;51.69;98663.59;4168341;28;20200;-57
2022/05/25 08:24:04;;;;;;;0.60;0.47;;;;;;;18.65;51.29;98659.69;4167190;28;20208;-56
2022/05/25 08:26:06;;;;;;;0.95;0.20;;;;;;;18.67;51.00;98657.44;4170156;28;20205;-57
2022/05/25 08:28:08;;;;;;;0.30;0.30;;;;;;;18.76;51.95;98659.25;4169712;28;20859;-57
2022/05/25 08:30:17;;;;;;;0.40;0.40;;;;;;;18.84;51.70;98661.34;4160547;28;20337;-56
2022/05/25 08:32:18;;;;;;;0.80;0.30;;;;;;;19.11;51.71;98658.69;4165157;28;20291;-57
2022/05/25 08:34:20;;;;;;;0.60;0.30;;;;;;;19.18;52.17;98663.88;4167667;28;20204;-57
2022/05/25 08:36:21;;;;;;;0.30;0.30;;;;;;;19.33;50.93;98655.34;4170429;28;20378;-57
2022/05/25 08:38:23;;;;;;;0.40;0.40;;;;;;;19.72;50.55;98655.75;4168352;28;20286;-57
2022/05/25 08:40:27;;;;;;;0.32;0.32;;;;;;;18.98;50.93;98653.09;4166292;28;21122;-56
2022/05/25 08:42:31;;;;;;;0.88;0.38;;;;;;;19.02;51.97;98665.22;4164706;28;20294;-56
2022/05/25 08:44:33;;;;;;;0.30;0.30;;;;;;;19.32;51.91;98662.81;4170052;28;20235;-57
2022/05/25 08:46:34;;;;;;;0.40;0.40;;;;;;;19.27;51.70;98665.69;4168201;28;20813;-58
2022/05/25 08:48:36;;;;;;;0.40;0.40;;;;;;;18.92;51.38;98670.94;4167450;28;20349;-59
2022/05/25 08:50:38;;;;;;;0.30;0.30;;;;;;;18.56;51.54;98661.47;4167259;28;20256;-59
2022/05/25 08:52:40;;;;;;;0.40;0.40;;;;;;;19.03;52.41;98672.41;4168053;28;20292;-57
2022/05/25 08:54:42;;;;;;;0.22;0.22;;;;;;;19.50;50.38;98672.22;4169064;28;20713;-61
2022/05/25 08:57:08;;;;;;;0.50;0.50;;;;;;;19.06;51.00;98671.84;4166324;28;20199;-59
2022/05/25 08:59:09;;;;;;;0.55;0.40;;;;;;;18.81;51.13;98670.28;4167226;28;20687;-60
2022/05/25 09:01:12;;;;;;;0.30;0.30;;;;;;;18.21;51.49;98675.75;4167182;28;20228;-60
2022/05/25 09:03:25;;;;;;;0.43;0.43;;;;;;;18.26;52.72;98668.19;4170222;28;20209;-58
2022/05/25 09:05:30;;;;;;;0.30;0.30;;;;;;;18.05;52.72;98671.50;4168535;28;20198;-59
2022/05/25 09:07:50;;;;;;;0.55;0.40;;;;;;;18.66;52.80;98678.78;4164601;28;20299;-60
2022/05/25 09:09:53;;;;;;;0.20;0.20;;;;;;;18.89;51.37;98665.97;4167931;28;20312;-60
2022/05/25 09:12:20;;;;;;;0.20;0.20;;;;;;;19.62;50.71;98669.81;4166114;28;20209;-60
2022/05/25 09:14:38;;;;;;;0.75;0.75;;;;;;;19.32;49.75;98670.34;4165025;28;20349;-58
2022/05/25 09:16:45;;;;;;;0.43;0.30;;;;;;;19.12;49.13;98665.91;4176790;28;20308;-59
2022/05/25 09:18:53;;;;;;;0.70;0.30;;;;;;;19.04;48.59;98661.03;4169481;28;20196;-58
2022/05/25 09:20:54;;;;;;;0.30;0.30;;;;;;;18.63;49.68;98659.16;4169898;28;20242;-57
2022/05/25 09:22:57;;;;;;;0.25;0.25;;;;;;;18.80;49.54;98662.25;4166023;28;20219;-58
2022/05/25 09:25:02;;;;;;;2.33;0.30;;;;;;;19.35;49.78;98667.78;4168821;28;20226;-59
2022/05/25 09:27:06;;;;;;;0.30;0.30;;;;;;;19.41;47.85;98657.41;4171862;28;20205;-59
2022/05/25 09:29:08;;;;;;;0.30;0.30;;;;;;;19.62;48.67;98664.25;4170042;28;20200;-60
2022/05/25 09:31:13;;;;;;;0.30;0.30;;;;;;;19.82;48.88;98652.78;4170182;28;21041;-59
2022/05/25 09:33:23;;;;;;;0.38;0.38;;;;;;;19.40;49.75;98662.16;4165506;28;20208;-58
2022/05/25 09:35:38;;;;;;;0.28;0.28;;;;;;;19.63;48.04;98655.63;4168965;28;20215;-57
2022/05/25 09:37:57;;;;;;;1.27;0.35;;;;;;;19.21;48.74;98663.28;4168937;28;20664;-61
2022/05/25 09:40:02;;;;;;;0.93;0.52;;;;;;;18.95;49.85;98662.00;4171128;28;20246;-58
2022/05/25 09:42:06;;;;;;;0.40;0.40;;;;;;;19.97;49.28;98660.84;4163544;28;20208;-61
2022/05/25 09:44:10;;;;;;;0.73;0.40;;;;;;;20.03;47.67;98665.16;4159747;28;20234;-59
2022/05/25 09:46:26;;;;;;;0.65;0.22;;;;;;;20.01;46.79;98665.47;4166129;28;20293;-60
2022/05/25 09:48:32;;;;;;;0.30;0.30;;;;;;;20.12;48.46;98663.34;4170078;28;20257;-58
2022/05/25 09:50:36;;;;;;;0.80;0.68;;;;;;;19.93;47.99;98668.13;4164147;28;20611;-59
2022/05/25 09:52:46;;;;;;;0.43;0.43;;;;;;;19.39;48.67;98670.78;4166639;28;20244;-58
2022/05/25 09:55:33;;;;;;;0.55;0.20;;;;;;;19.89;47.62;98669.88;4168280;28;20223;-59
2022/05/25 09:57:38;;;;;;;0.32;0.25;;;;;;;19.53;48.69;98657.75;4134724;28;20681;-58
2022/05/25 09:59:49;;;;;;;0.22;0.22;;;;;;;20.15;47.08;98658.00;4157209;28;20208;-59
2022/05/25 10:01:52;;;;;;;0.30;0.30;;;;;;;20.47;44.24;98655.13;4158383;28;20216;-59
2022/05/25 10:03:54;;;;;;;0.22;0.22;;;;;;;20.92;45.86;98670.81;4157992;28;20252;-61
2022/05/25 10:05:58;;;;;;;1.15;0.38;;;;;;;21.21;43.63;98664.84;4167817;28;20696;-59